Capitol Logistics 2429

Operating for GTI



KELP
El Paso International Airport
El Paso, Texas
KCVG
Cincinnati/Northern Kentucky International Airport
Covington, Kentucky

Activity Log

Date Flight Route Aircraft Duration
No Flights Yet

Route Details

Aircraft Information
Primary: Boeing 767-300BDSF
Backup: Boeing 737-800BCF
Route Data
Distance: 1145nm
Duration: 2h 31m
Recm'd Route: LATVE3 CME CDS IRW J98 TUL J78 PXV SARGO3
Origin Wx: KELP 191151Z COR 00000KT 10SM FEW150 24/01 A2996 RMK AO2 SLP062 T02390006 10283 20222 53009
Dest. Wx: KCVG 191204Z COR 02007KT 3SM R18C/6000VP6000FT TSRA BR BKN026CB OVC041 18/17 A3003 RMK AO2 LTG DSNT ALQDS OCNL LTGIC OHD TSE1155B02 TS OHD MOV SE PRESRR P0017 T01830172
Notes: